sensor_id;sensor_type;location;lat;lon;timestamp;pressure;altitude;pressure_sealevel;temperature;humidity
64967;BME280;51710;38.732;-121.358;2023-02-13T00:00:18;100698.84;;;21.95;33.01
64967;BME280;51710;38.732;-121.358;2023-02-13T00:02:45;100694.97;;;21.91;32.80
64967;BME280;51710;38.732;-121.358;2023-02-13T00:05:11;100694.81;;;21.86;32.89
64967;BME280;51710;38.732;-121.358;2023-02-13T00:07:38;100698.00;;;21.83;32.64
64967;BME280;51710;38.732;-121.358;2023-02-13T00:10:04;100695.75;;;21.80;33.49
64967;BME280;51710;38.732;-121.358;2023-02-13T00:12:31;100695.22;;;21.72;32.89
64967;BME280;51710;38.732;-121.358;2023-02-13T00:14:57;100690.47;;;21.67;33.18
64967;BME280;51710;38.732;-121.358;2023-02-13T00:17:25;100686.38;;;21.65;33.19
64967;BME280;51710;38.732;-121.358;2023-02-13T00:19:51;100693.06;;;21.62;33.33
64967;BME280;51710;38.732;-121.358;2023-02-13T00:22:18;100682.22;;;21.62;33.25
64967;BME280;51710;38.732;-121.358;2023-02-13T00:24:44;100685.63;;;21.58;33.55
64967;BME280;51710;38.732;-121.358;2023-02-13T00:27:10;100676.06;;;21.55;33.77
64967;BME280;51710;38.732;-121.358;2023-02-13T00:29:36;100675.44;;;21.53;34.07
64967;BME280;51710;38.732;-121.358;2023-02-13T00:32:03;100684.06;;;21.50;34.22
64967;BME280;51710;38.732;-121.358;2023-02-13T00:34:29;100669.31;;;21.46;34.33
64967;BME280;51710;38.732;-121.358;2023-02-13T00:36:56;100672.34;;;21.38;34.56
64967;BME280;51710;38.732;-121.358;2023-02-13T00:39:22;100670.56;;;21.32;35.14
64967;BME280;51710;38.732;-121.358;2023-02-13T00:41:48;100666.50;;;21.23;34.92
64967;BME280;51710;38.732;-121.358;2023-02-13T00:44:15;100662.81;;;21.17;34.82
64967;BME280;51710;38.732;-121.358;2023-02-13T00:46:41;100666.22;;;21.13;34.91
64967;BME280;51710;38.732;-121.358;2023-02-13T00:49:07;100670.44;;;21.09;35.36
64967;BME280;51710;38.732;-121.358;2023-02-13T00:51:34;100670.50;;;21.02;35.41
64967;BME280;51710;38.732;-121.358;2023-02-13T00:54:00;100674.31;;;20.95;35.76
64967;BME280;51710;38.732;-121.358;2023-02-13T00:56:27;100669.34;;;20.92;35.59
64967;BME280;51710;38.732;-121.358;2023-02-13T00:58:53;100664.59;;;20.87;35.99
64967;BME280;51710;38.732;-121.358;2023-02-13T01:01:19;100658.19;;;20.82;35.77
64967;BME280;51710;38.732;-121.358;2023-02-13T01:03:45;100655.09;;;20.78;35.93
64967;BME280;51710;38.732;-121.358;2023-02-13T01:06:12;100651.88;;;20.70;36.30
64967;BME280;51710;38.732;-121.358;2023-02-13T01:08:39;100650.50;;;20.61;36.27
64967;BME280;51710;38.732;-121.358;2023-02-13T01:11:06;100639.16;;;20.52;36.04
64967;BME280;51710;38.732;-121.358;2023-02-13T01:13:32;100644.03;;;20.44;36.12
64967;BME280;51710;38.732;-121.358;2023-02-13T01:15:59;100637.03;;;20.36;36.38
64967;BME280;51710;38.732;-121.358;2023-02-13T01:18:25;100641.31;;;20.26;36.87
64967;BME280;51710;38.732;-121.358;2023-02-13T01:21:04;100637.63;;;20.13;36.78
64967;BME280;51710;38.732;-121.358;2023-02-13T01:23:37;100634.34;;;20.05;36.42
64967;BME280;51710;38.732;-121.358;2023-02-13T01:26:06;100634.41;;;19.98;36.84
64967;BME280;51710;38.732;-121.358;2023-02-13T01:28:33;100634.94;;;19.89;37.00
64967;BME280;51710;38.732;-121.358;2023-02-13T01:30:59;100628.97;;;19.80;37.04
64967;BME280;51710;38.732;-121.358;2023-02-13T01:33:27;100630.66;;;19.75;37.17
64967;BME280;51710;38.732;-121.358;2023-02-13T01:35:54;100631.34;;;19.64;37.14
64967;BME280;51710;38.732;-121.358;2023-02-13T01:38:20;100638.06;;;19.55;37.59
64967;BME280;51710;38.732;-121.358;2023-02-13T01:40:51;100627.75;;;19.45;37.55
64967;BME280;51710;38.732;-121.358;2023-02-13T01:43:19;100632.81;;;19.35;37.80
64967;BME280;51710;38.732;-121.358;2023-02-13T01:45:53;100639.88;;;19.23;38.07
64967;BME280;51710;38.732;-121.358;2023-02-13T01:48:25;100635.16;;;19.12;37.89
64967;BME280;51710;38.732;-121.358;2023-02-13T01:50:59;100644.53;;;19.03;38.13
64967;BME280;51710;38.732;-121.358;2023-02-13T01:53:27;100647.06;;;18.98;38.24
64967;BME280;51710;38.732;-121.358;2023-02-13T01:58:28;100650.47;;;18.74;38.68
64967;BME280;51710;38.732;-121.358;2023-02-13T02:00:56;100650.06;;;18.64;38.91
64967;BME280;51710;38.732;-121.358;2023-02-13T02:05:50;100651.13;;;18.50;39.01
64967;BME280;51710;38.732;-121.358;2023-02-13T02:08:18;100647.19;;;18.46;39.00
64967;BME280;51710;38.732;-121.358;2023-02-13T02:14:08;100645.72;;;18.37;38.97
64967;BME280;51710;38.732;-121.358;2023-02-13T02:16:43;100646.97;;;18.28;39.35
64967;BME280;51710;38.732;-121.358;2023-02-13T02:36:42;100652.78;;;17.79;39.76
64967;BME280;51710;38.732;-121.358;2023-02-13T02:42:22;100666.25;;;17.72;39.61
64967;BME280;51710;38.732;-121.358;2023-02-13T02:45:21;100673.69;;;17.70;39.67
64967;BME280;51710;38.732;-121.358;2023-02-13T02:54:16;100668.69;;;17.54;40.19
64967;BME280;51710;38.732;-121.358;2023-02-13T02:57:15;100686.00;;;17.45;40.46
64967;BME280;51710;38.732;-121.358;2023-02-13T02:59:45;100677.50;;;17.35;40.78
64967;BME280;51710;38.732;-121.358;2023-02-13T03:02:33;100672.94;;;17.29;40.92
64967;BME280;51710;38.732;-121.358;2023-02-13T03:05:28;100674.97;;;17.21;41.09
64967;BME280;51710;38.732;-121.358;2023-02-13T03:08:14;100671.59;;;17.12;41.45
64967;BME280;51710;38.732;-121.358;2023-02-13T03:11:01;100671.78;;;17.04;41.70
64967;BME280;51710;38.732;-121.358;2023-02-13T03:13:47;100667.19;;;16.98;42.46
64967;BME280;51710;38.732;-121.358;2023-02-13T03:16:23;100666.38;;;16.91;42.18
64967;BME280;51710;38.732;-121.358;2023-02-13T03:19:28;100674.56;;;16.83;42.50
64967;BME280;51710;38.732;-121.358;2023-02-13T03:25:10;100673.47;;;16.71;42.98
64967;BME280;51710;38.732;-121.358;2023-02-13T03:41:37;100657.69;;;16.34;44.18
64967;BME280;51710;38.732;-121.358;2023-02-13T03:44:34;100667.19;;;16.30;43.93
64967;BME280;51710;38.732;-121.358;2023-02-13T03:47:04;100665.47;;;16.22;44.36
64967;BME280;51710;38.732;-121.358;2023-02-13T03:49:36;100667.06;;;16.17;44.41
64967;BME280;51710;38.732;-121.358;2023-02-13T03:55:11;100654.50;;;15.96;45.39
64967;BME280;51710;38.732;-121.358;2023-02-13T03:58:03;100676.84;;;15.75;45.47
64967;BME280;51710;38.732;-121.358;2023-02-13T04:00:54;100673.75;;;15.57;46.03
64967;BME280;51710;38.732;-121.358;2023-02-13T04:03:28;100671.19;;;15.49;46.42
64967;BME280;51710;38.732;-121.358;2023-02-13T04:06:23;100671.13;;;15.28;47.11
64967;BME280;51710;38.732;-121.358;2023-02-13T04:08:52;100677.16;;;15.01;47.59
64967;BME280;51710;38.732;-121.358;2023-02-13T04:11:32;100676.66;;;14.77;48.04
64967;BME280;51710;38.732;-121.358;2023-02-13T04:14:08;100673.31;;;14.75;48.89
64967;BME280;51710;38.732;-121.358;2023-02-13T04:16:40;100685.03;;;14.74;48.81
64967;BME280;51710;38.732;-121.358;2023-02-13T04:19:08;100687.53;;;14.75;48.91
64967;BME280;51710;38.732;-121.358;2023-02-13T04:21:38;100693.28;;;14.72;49.02
64967;BME280;51710;38.732;-121.358;2023-02-13T04:24:05;100694.31;;;14.71;49.18
64967;BME280;51710;38.732;-121.358;2023-02-13T04:26:42;100698.63;;;14.72;49.48
64967;BME280;51710;38.732;-121.358;2023-02-13T04:29:08;100694.66;;;14.68;49.74
64967;BME280;51710;38.732;-121.358;2023-02-13T04:31:35;100695.22;;;14.63;49.89
64967;BME280;51710;38.732;-121.358;2023-02-13T04:34:01;100696.50;;;14.53;49.80
64967;BME280;51710;38.732;-121.358;2023-02-13T04:36:27;100693.53;;;14.48;50.23
64967;BME280;51710;38.732;-121.358;2023-02-13T04:38:54;100699.00;;;14.40;50.66
64967;BME280;51710;38.732;-121.358;2023-02-13T04:41:20;100693.88;;;14.30;50.80
64967;BME280;51710;38.732;-121.358;2023-02-13T04:43:46;100700.94;;;14.23;50.90
64967;BME280;51710;38.732;-121.358;2023-02-13T04:46:13;100694.47;;;14.18;50.87
64967;BME280;51710;38.732;-121.358;2023-02-13T04:48:40;100702.88;;;14.15;51.07
64967;BME280;51710;38.732;-121.358;2023-02-13T04:51:06;100706.09;;;14.10;51.29
64967;BME280;51710;38.732;-121.358;2023-02-13T04:53:32;100705.63;;;14.07;51.39
64967;BME280;51710;38.732;-121.358;2023-02-13T04:55:59;100704.69;;;14.00;51.81
64967;BME280;51710;38.732;-121.358;2023-02-13T04:58:25;100707.03;;;13.95;51.67
64967;BME280;51710;38.732;-121.358;2023-02-13T05:00:51;100707.94;;;13.87;52.14
64967;BME280;51710;38.732;-121.358;2023-02-13T05:03:18;100714.38;;;13.78;52.33
64967;BME280;51710;38.732;-121.358;2023-02-13T05:05:44;100713.81;;;13.60;52.77
64967;BME280;51710;38.732;-121.358;2023-02-13T05:08:10;100703.03;;;13.45;53.19
64967;BME280;51710;38.732;-121.358;2023-02-13T05:10:36;100712.97;;;13.37;53.27
64967;BME280;51710;38.732;-121.358;2023-02-13T05:13:03;100714.19;;;13.26;54.01
64967;BME280;51710;38.732;-121.358;2023-02-13T05:15:29;100713.59;;;13.00;54.90
64967;BME280;51710;38.732;-121.358;2023-02-13T05:17:56;100699.16;;;12.71;55.08
64967;BME280;51710;38.732;-121.358;2023-02-13T05:20:23;100704.53;;;12.55;55.18
64967;BME280;51710;38.732;-121.358;2023-02-13T05:22:51;100712.72;;;12.45;56.27
64967;BME280;51710;38.732;-121.358;2023-02-13T05:25:38;100714.75;;;12.19;56.73
64967;BME280;51710;38.732;-121.358;2023-02-13T05:28:05;100710.91;;;11.89;57.65
64967;BME280;51710;38.732;-121.358;2023-02-13T05:30:54;100716.25;;;11.73;57.46
64967;BME280;51710;38.732;-121.358;2023-02-13T05:33:20;100717.75;;;11.76;58.45
64967;BME280;51710;38.732;-121.358;2023-02-13T05:35:47;100722.44;;;11.82;58.94
64967;BME280;51710;38.732;-121.358;2023-02-13T05:38:13;100724.09;;;11.83;58.36
64967;BME280;51710;38.732;-121.358;2023-02-13T05:40:39;100720.41;;;11.84;58.48
64967;BME280;51710;38.732;-121.358;2023-02-13T05:43:05;100725.44;;;11.87;58.44
64967;BME280;51710;38.732;-121.358;2023-02-13T05:45:32;100742.13;;;11.89;58.61
64967;BME280;51710;38.732;-121.358;2023-02-13T05:47:58;100728.13;;;11.87;58.42
64967;BME280;51710;38.732;-121.358;2023-02-13T05:50:24;100728.28;;;11.85;59.15
64967;BME280;51710;38.732;-121.358;2023-02-13T05:52:51;100726.78;;;11.83;58.73
64967;BME280;51710;38.732;-121.358;2023-02-13T05:55:17;100737.44;;;11.83;58.45
64967;BME280;51710;38.732;-121.358;2023-02-13T05:57:43;100740.09;;;11.83;59.04
64967;BME280;51710;38.732;-121.358;2023-02-13T06:00:10;100743.78;;;11.82;58.69
64967;BME280;51710;38.732;-121.358;2023-02-13T06:02:36;100734.44;;;11.86;58.56
64967;BME280;51710;38.732;-121.358;2023-02-13T06:05:03;100734.13;;;11.89;58.48
64967;BME280;51710;38.732;-121.358;2023-02-13T06:07:29;100733.13;;;11.90;58.82
64967;BME280;51710;38.732;-121.358;2023-02-13T06:09:56;100733.28;;;11.88;58.07
64967;BME280;51710;38.732;-121.358;2023-02-13T06:12:24;100738.44;;;11.82;58.53
64967;BME280;51710;38.732;-121.358;2023-02-13T06:14:50;100743.94;;;11.72;58.49
64967;BME280;51710;38.732;-121.358;2023-02-13T06:17:17;100743.75;;;11.66;58.76
64967;BME280;51710;38.732;-121.358;2023-02-13T06:19:43;100742.19;;;11.63;58.87
64967;BME280;51710;38.732;-121.358;2023-02-13T06:22:09;100749.03;;;11.58;58.73
64967;BME280;51710;38.732;-121.358;2023-02-13T06:24:35;100747.03;;;11.52;58.82
64967;BME280;51710;38.732;-121.358;2023-02-13T06:27:02;100748.00;;;11.43;59.01
64967;BME280;51710;38.732;-121.358;2023-02-13T06:29:28;100750.31;;;11.38;59.03
64967;BME280;51710;38.732;-121.358;2023-02-13T06:31:56;100754.63;;;11.30;59.47
64967;BME280;51710;38.732;-121.358;2023-02-13T06:34:22;100752.78;;;11.31;59.08
64967;BME280;51710;38.732;-121.358;2023-02-13T06:36:48;100753.47;;;11.33;59.39
64967;BME280;51710;38.732;-121.358;2023-02-13T06:39:15;100763.28;;;11.32;60.01
64967;BME280;51710;38.732;-121.358;2023-02-13T06:41:41;100766.13;;;11.31;59.49
64967;BME280;51710;38.732;-121.358;2023-02-13T06:44:08;100779.28;;;11.32;59.71
64967;BME280;51710;38.732;-121.358;2023-02-13T06:46:34;100774.28;;;11.29;59.12
64967;BME280;51710;38.732;-121.358;2023-02-13T06:49:00;100770.09;;;11.27;59.55
64967;BME280;51710;38.732;-121.358;2023-02-13T06:51:26;100768.91;;;11.21;59.88
64967;BME280;51710;38.732;-121.358;2023-02-13T06:53:53;100774.16;;;11.05;59.83
64967;BME280;51710;38.732;-121.358;2023-02-13T06:56:19;100775.25;;;10.95;60.18
64967;BME280;51710;38.732;-121.358;2023-02-13T06:58:45;100764.72;;;10.85;60.28
64967;BME280;51710;38.732;-121.358;2023-02-13T07:01:11;100771.19;;;10.83;60.21
64967;BME280;51710;38.732;-121.358;2023-02-13T07:03:37;100777.16;;;10.77;60.93
64967;BME280;51710;38.732;-121.358;2023-02-13T07:06:04;100767.56;;;10.58;60.79
64967;BME280;51710;38.732;-121.358;2023-02-13T07:08:30;100765.47;;;10.44;61.17
64967;BME280;51710;38.732;-121.358;2023-02-13T07:10:56;100757.72;;;10.33;61.10
64967;BME280;51710;38.732;-121.358;2023-02-13T07:13:23;100757.50;;;10.27;61.87
64967;BME280;51710;38.732;-121.358;2023-02-13T07:15:49;100757.34;;;10.28;61.93
64967;BME280;51710;38.732;-121.358;2023-02-13T07:18:15;100770.97;;;10.25;61.69
64967;BME280;51710;38.732;-121.358;2023-02-13T07:20:41;100771.56;;;10.19;62.30
64967;BME280;51710;38.732;-121.358;2023-02-13T07:23:09;100779.88;;;10.16;62.39
64967;BME280;51710;38.732;-121.358;2023-02-13T07:25:35;100776.69;;;10.12;61.95
64967;BME280;51710;38.732;-121.358;2023-02-13T07:28:03;100768.03;;;10.01;62.87
64967;BME280;51710;38.732;-121.358;2023-02-13T07:30:30;100768.34;;;9.98;62.98
64967;BME280;51710;38.732;-121.358;2023-02-13T07:32:59;100775.97;;;9.93;62.96
64967;BME280;51710;38.732;-121.358;2023-02-13T07:35:25;100773.25;;;9.85;62.99
64967;BME280;51710;38.732;-121.358;2023-02-13T07:37:55;100767.75;;;9.69;63.22
64967;BME280;51710;38.732;-121.358;2023-02-13T07:40:21;100772.97;;;9.61;63.51
64967;BME280;51710;38.732;-121.358;2023-02-13T07:42:49;100772.53;;;9.65;63.81
64967;BME280;51710;38.732;-121.358;2023-02-13T07:45:15;100766.16;;;9.76;64.05
64967;BME280;51710;38.732;-121.358;2023-02-13T07:47:41;100760.91;;;9.84;64.06
64967;BME280;51710;38.732;-121.358;2023-02-13T07:50:08;100761.06;;;9.82;64.39
64967;BME280;51710;38.732;-121.358;2023-02-13T07:52:35;100755.38;;;9.77;64.76
64967;BME280;51710;38.732;-121.358;2023-02-13T07:55:03;100750.56;;;9.81;64.62
64967;BME280;51710;38.732;-121.358;2023-02-13T07:57:30;100741.00;;;9.88;64.78
64967;BME280;51710;38.732;-121.358;2023-02-13T07:59:58;100751.72;;;9.96;64.75
64967;BME280;51710;38.732;-121.358;2023-02-13T08:02:25;100756.44;;;10.02;64.80
64967;BME280;51710;38.732;-121.358;2023-02-13T08:04:51;100760.19;;;10.09;65.45
64967;BME280;51710;38.732;-121.358;2023-02-13T08:07:18;100756.75;;;10.16;65.33
64967;BME280;51710;38.732;-121.358;2023-02-13T08:09:45;100753.63;;;10.21;65.15
64967;BME280;51710;38.732;-121.358;2023-02-13T08:12:29;100763.34;;;10.30;65.32
64967;BME280;51710;38.732;-121.358;2023-02-13T08:14:55;100749.75;;;10.33;64.54
64967;BME280;51710;38.732;-121.358;2023-02-13T08:17:22;100751.09;;;10.37;65.43
64967;BME280;51710;38.732;-121.358;2023-02-13T08:19:48;100744.25;;;10.35;65.38
64967;BME280;51710;38.732;-121.358;2023-02-13T08:22:15;100748.72;;;10.34;65.53
64967;BME280;51710;38.732;-121.358;2023-02-13T08:24:41;100755.75;;;10.35;65.53
64967;BME280;51710;38.732;-121.358;2023-02-13T08:27:13;100745.09;;;10.35;65.88
64967;BME280;51710;38.732;-121.358;2023-02-13T08:29:40;100738.59;;;10.38;65.89
64967;BME280;51710;38.732;-121.358;2023-02-13T08:32:07;100737.78;;;10.37;65.93
64967;BME280;51710;38.732;-121.358;2023-02-13T08:34:33;100736.44;;;10.33;65.67
64967;BME280;51710;38.732;-121.358;2023-02-13T08:37:00;100730.25;;;10.33;65.65
64967;BME280;51710;38.732;-121.358;2023-02-13T08:39:27;100725.78;;;10.33;66.25
64967;BME280;51710;38.732;-121.358;2023-02-13T08:41:54;100729.13;;;10.35;66.42
64967;BME280;51710;38.732;-121.358;2023-02-13T08:44:20;100734.44;;;10.35;66.40
64967;BME280;51710;38.732;-121.358;2023-02-13T08:46:46;100740.75;;;10.34;66.42
64967;BME280;51710;38.732;-121.358;2023-02-13T08:49:13;100735.97;;;10.20;66.01
64967;BME280;51710;38.732;-121.358;2023-02-13T08:51:39;100725.19;;;10.04;66.90
64967;BME280;51710;38.732;-121.358;2023-02-13T08:54:05;100716.44;;;9.94;66.94
64967;BME280;51710;38.732;-121.358;2023-02-13T08:56:31;100719.41;;;9.91;67.20
64967;BME280;51710;38.732;-121.358;2023-02-13T08:58:58;100721.69;;;9.86;67.15
64967;BME280;51710;38.732;-121.358;2023-02-13T09:01:24;100727.34;;;9.83;67.54
64967;BME280;51710;38.732;-121.358;2023-02-13T09:03:50;100720.31;;;9.82;67.43
64967;BME280;51710;38.732;-121.358;2023-02-13T09:06:17;100722.84;;;9.83;67.97
64967;BME280;51710;38.732;-121.358;2023-02-13T09:08:43;100720.31;;;9.82;68.06
64967;BME280;51710;38.732;-121.358;2023-02-13T09:11:10;100703.84;;;9.78;68.05
64967;BME280;51710;38.732;-121.358;2023-02-13T09:13:36;100703.56;;;9.81;68.09
64967;BME280;51710;38.732;-121.358;2023-02-13T09:16:04;100703.25;;;9.84;67.91
64967;BME280;51710;38.732;-121.358;2023-02-13T09:18:31;100711.06;;;9.86;68.27
64967;BME280;51710;38.732;-121.358;2023-02-13T09:21:01;100711.75;;;9.88;68.17
64967;BME280;51710;38.732;-121.358;2023-02-13T09:23:32;100717.75;;;9.90;68.29
64967;BME280;51710;38.732;-121.358;2023-02-13T09:26:03;100709.63;;;9.91;68.28
64967;BME280;51710;38.732;-121.358;2023-02-13T09:28:31;100708.47;;;9.94;68.32
64967;BME280;51710;38.732;-121.358;2023-02-13T09:30:58;100710.84;;;9.97;68.24
64967;BME280;51710;38.732;-121.358;2023-02-13T09:33:25;100714.47;;;9.96;68.53
64967;BME280;51710;38.732;-121.358;2023-02-13T09:35:55;100710.16;;;9.95;68.26
64967;BME280;51710;38.732;-121.358;2023-02-13T09:38:23;100710.16;;;9.95;68.93
64967;BME280;51710;38.732;-121.358;2023-02-13T09:40:51;100701.31;;;9.94;68.85
64967;BME280;51710;38.732;-121.358;2023-02-13T09:46:20;100723.50;;;9.33;68.80
64967;BME280;51710;38.732;-121.358;2023-02-13T09:48:50;100713.25;;;9.10;69.82
64967;BME280;51710;38.732;-121.358;2023-02-13T09:51:20;100704.91;;;9.05;70.00
64967;BME280;51710;38.732;-121.358;2023-02-13T09:53:55;100701.56;;;9.03;70.15
64967;BME280;51710;38.732;-121.358;2023-02-13T09:56:41;100699.50;;;8.97;70.07
64967;BME280;51710;38.732;-121.358;2023-02-13T09:59:34;100706.38;;;8.90;70.62
64967;BME280;51710;38.732;-121.358;2023-02-13T10:05:06;100701.41;;;9.05;70.69
64967;BME280;51710;38.732;-121.358;2023-02-13T10:15:51;100712.75;;;8.24;72.15
64967;BME280;51710;38.732;-121.358;2023-02-13T10:18:26;100711.91;;;8.24;72.25
64967;BME280;51710;38.732;-121.358;2023-02-13T10:20:59;100707.16;;;8.27;72.38
64967;BME280;51710;38.732;-121.358;2023-02-13T10:23:37;100709.66;;;8.29;72.38
64967;BME280;51710;38.732;-121.358;2023-02-13T10:26:11;100721.63;;;8.23;72.78
64967;BME280;51710;38.732;-121.358;2023-02-13T10:28:46;100704.50;;;8.08;73.11
64967;BME280;51710;38.732;-121.358;2023-02-13T10:31:33;100703.50;;;8.09;73.41
64967;BME280;51710;38.732;-121.358;2023-02-13T10:34:01;100694.75;;;8.09;72.93
64967;BME280;51710;38.732;-121.358;2023-02-13T10:36:35;100677.03;;;7.99;72.89
64967;BME280;51710;38.732;-121.358;2023-02-13T10:44:38;100664.72;;;7.98;73.24
64967;BME280;51710;38.732;-121.358;2023-02-13T10:50:09;100668.94;;;8.01;73.67
64967;BME280;51710;38.732;-121.358;2023-02-13T10:58:27;100660.31;;;7.70;72.64
64967;BME280;51710;38.732;-121.358;2023-02-13T11:01:34;100672.84;;;7.59;73.15
64967;BME280;51710;38.732;-121.358;2023-02-13T11:04:11;100671.19;;;7.48;73.47
64967;BME280;51710;38.732;-121.358;2023-02-13T11:07:00;100659.88;;;7.46;74.19
64967;BME280;51710;38.732;-121.358;2023-02-13T11:09:29;100663.66;;;7.44;73.46
64967;BME280;51710;38.732;-121.358;2023-02-13T11:12:26;100667.84;;;7.37;73.90
64967;BME280;51710;38.732;-121.358;2023-02-13T11:14:54;100671.88;;;7.31;74.31
64967;BME280;51710;38.732;-121.358;2023-02-13T11:17:22;100682.31;;;7.33;73.89
64967;BME280;51710;38.732;-121.358;2023-02-13T11:19:52;100670.50;;;7.37;74.38
64967;BME280;51710;38.732;-121.358;2023-02-13T11:22:45;100675.50;;;7.40;74.94
64967;BME280;51710;38.732;-121.358;2023-02-13T11:25:21;100680.09;;;7.38;74.49
64967;BME280;51710;38.732;-121.358;2023-02-13T11:27:49;100684.69;;;7.36;74.48
64967;BME280;51710;38.732;-121.358;2023-02-13T11:30:33;100684.97;;;7.33;74.40
64967;BME280;51710;38.732;-121.358;2023-02-13T11:33:04;100682.75;;;7.28;74.30
64967;BME280;51710;38.732;-121.358;2023-02-13T11:35:33;100682.03;;;7.26;75.01
64967;BME280;51710;38.732;-121.358;2023-02-13T11:40:45;100678.97;;;7.31;75.10
64967;BME280;51710;38.732;-121.358;2023-02-13T11:43:32;100678.53;;;7.26;74.96
64967;BME280;51710;38.732;-121.358;2023-02-13T11:48:39;100682.00;;;7.07;74.89
64967;BME280;51710;38.732;-121.358;2023-02-13T11:51:06;100688.97;;;6.99;74.91
64967;BME280;51710;38.732;-121.358;2023-02-13T11:53:37;100687.53;;;6.95;75.85
64967;BME280;51710;38.732;-121.358;2023-02-13T11:56:12;100698.50;;;6.80;75.84
64967;BME280;51710;38.732;-121.358;2023-02-13T11:58:39;100701.69;;;6.74;76.05
64967;BME280;51710;38.732;-121.358;2023-02-13T12:04:04;100684.06;;;6.54;76.08
64967;BME280;51710;38.732;-121.358;2023-02-13T12:06:31;100679.53;;;6.45;76.10
64967;BME280;51710;38.732;-121.358;2023-02-13T12:09:10;100676.47;;;6.40;76.54
64967;BME280;51710;38.732;-121.358;2023-02-13T12:12:01;100685.38;;;6.39;76.64
64967;BME280;51710;38.732;-121.358;2023-02-13T12:14:38;100683.19;;;6.44;76.25
64967;BME280;51710;38.732;-121.358;2023-02-13T12:17:09;100683.75;;;6.48;76.35
64967;BME280;51710;38.732;-121.358;2023-02-13T12:19:43;100684.59;;;6.48;76.27
64967;BME280;51710;38.732;-121.358;2023-02-13T12:33:25;100693.91;;;6.22;76.13
64967;BME280;51710;38.732;-121.358;2023-02-13T12:36:15;100702.63;;;6.13;76.87
64967;BME280;51710;38.732;-121.358;2023-02-13T12:52:40;100710.34;;;6.05;77.53
64967;BME280;51710;38.732;-121.358;2023-02-13T12:55:35;100712.97;;;6.05;77.38
64967;BME280;51710;38.732;-121.358;2023-02-13T13:01:25;100696.19;;;6.06;77.34
64967;BME280;51710;38.732;-121.358;2023-02-13T13:10:18;100691.06;;;6.14;77.40
64967;BME280;51710;38.732;-121.358;2023-02-13T13:13:36;100694.72;;;6.23;77.72
64967;BME280;51710;38.732;-121.358;2023-02-13T13:15:43;100699.25;;;6.32;77.62
64967;BME280;51710;38.732;-121.358;2023-02-13T13:18:31;100698.22;;;6.23;76.61
64967;BME280;51710;38.732;-121.358;2023-02-13T13:21:07;100685.47;;;6.08;76.85
64967;BME280;51710;38.732;-121.358;2023-02-13T13:23:39;100695.66;;;5.92;76.62
64967;BME280;51710;38.732;-121.358;2023-02-13T13:28:55;100728.59;;;5.77;77.25
64967;BME280;51710;38.732;-121.358;2023-02-13T13:31:25;100723.00;;;5.70;77.84
64967;BME280;51710;38.732;-121.358;2023-02-13T13:33:59;100717.13;;;5.66;78.37
64967;BME280;51710;38.732;-121.358;2023-02-13T13:36:43;100714.09;;;5.71;78.28
64967;BME280;51710;38.732;-121.358;2023-02-13T13:41:47;100707.56;;;5.86;78.03
64967;BME280;51710;38.732;-121.358;2023-02-13T13:47:35;100694.22;;;5.88;77.98
64967;BME280;51710;38.732;-121.358;2023-02-13T13:50:38;100677.78;;;5.84;77.64
64967;BME280;51710;38.732;-121.358;2023-02-13T13:53:20;100679.22;;;5.88;77.76
64967;BME280;51710;38.732;-121.358;2023-02-13T13:58:45;100660.41;;;6.02;78.04
64967;BME280;51710;38.732;-121.358;2023-02-13T14:01:18;100658.91;;;6.09;77.92
64967;BME280;51710;38.732;-121.358;2023-02-13T14:03:47;100659.06;;;6.17;78.05
64967;BME280;51710;38.732;-121.358;2023-02-13T14:06:22;100659.00;;;6.28;78.48
64967;BME280;51710;38.732;-121.358;2023-02-13T14:08:56;100659.88;;;6.38;78.53
64967;BME280;51710;38.732;-121.358;2023-02-13T14:16:59;100706.53;;;6.39;77.96
64967;BME280;51710;38.732;-121.358;2023-02-13T14:19:35;100715.97;;;6.12;77.62
64967;BME280;51710;38.732;-121.358;2023-02-13T14:24:56;100715.00;;;5.81;79.12
64967;BME280;51710;38.732;-121.358;2023-02-13T14:27:34;100720.63;;;5.88;79.39
64967;BME280;51710;38.732;-121.358;2023-02-13T14:30:28;100724.44;;;5.95;79.58
64967;BME280;51710;38.732;-121.358;2023-02-13T14:32:56;100728.25;;;6.02;79.63
64967;BME280;51710;38.732;-121.358;2023-02-13T14:35:31;100729.56;;;6.07;79.40
64967;BME280;51710;38.732;-121.358;2023-02-13T14:38:00;100729.28;;;6.10;79.22
64967;BME280;51710;38.732;-121.358;2023-02-13T14:40:48;100736.53;;;6.08;79.03
64967;BME280;51710;38.732;-121.358;2023-02-13T14:45:54;100747.88;;;5.99;79.15
64967;BME280;51710;38.732;-121.358;2023-02-13T14:48:34;100748.59;;;6.01;79.24
64967;BME280;51710;38.732;-121.358;2023-02-13T14:51:04;100758.75;;;6.06;79.49
64967;BME280;51710;38.732;-121.358;2023-02-13T14:53:50;100775.47;;;6.06;79.09
64967;BME280;51710;38.732;-121.358;2023-02-13T14:56:19;100774.88;;;6.03;79.17
64967;BME280;51710;38.732;-121.358;2023-02-13T14:58:54;100771.66;;;5.99;79.04
64967;BME280;51710;38.732;-121.358;2023-02-13T15:01:27;100770.47;;;5.92;79.55
64967;BME280;51710;38.732;-121.358;2023-02-13T15:03:58;100769.91;;;5.89;79.12
64967;BME280;51710;38.732;-121.358;2023-02-13T15:06:38;100771.47;;;5.80;79.22
64967;BME280;51710;38.732;-121.358;2023-02-13T15:09:19;100767.50;;;5.74;79.14
64967;BME280;51710;38.732;-121.358;2023-02-13T15:11:47;100772.94;;;5.73;79.57
64967;BME280;51710;38.732;-121.358;2023-02-13T15:17:06;100756.09;;;5.74;79.69